Terminal Aerodrome Forecast
Issued by NWS

Home | Current Version | Previous Version | Text Only | Print | Product List | Glossary On
Versions: 1 2 3 4 5 6 7 8 9 10 11 12 13 14
000
FTUS43 KAPX 241720
TAFMBL
TAF
KMBL 241720Z 2418/2518 30007KT P6SM OVC030
     FM242200 03009KT 2SM -RA BR OVC012
     FM250600 06009KT 2SM -RA BR OVC008
     FM251400 08011G20KT 6SM -RA OVC030=

USA.gov is the U.S. government's official web portal to all federal, state and local government web resources and services.